Metar Aviation Weather Data EDDG

12°C Temp
12°C Dewpoint
% Humidity
Temperature
5 KM/H
3 MPH
3 KTS
120°
East South
East

Wind Speed
Foggy
Conditions
Pressure 1012.92 (hPa) - 29.91 (in)
Visibility 0.2 (mi) - 0 (km)

Current Conditions
EDDG
Metar :EDDG 210650Z 12003KT 060V160 0300 R25/0550N FG BKN001 12/12 Q1013 BECMG 3000 BKN005
Mon 21st October 08:50 am

  Metar Aviation API Data Provided by https://www.checkwx.com/ PHP scripts by weather34.com ©2019